Time;durP1;ratioP1;P1;durP2;ratioP2;P2;SDS_P1;SDS_P2;PMS_P1;PMS_P2;Temp;Humidity;BMP_temperature;BMP_pressure;BME280_temperature;BME280_humidity;BME280_pressure;Samples;Min_cycle;Max_cycle;Signal;HPM_P1;HPM_P2
2022/04/01 00:00:10;;;;;;;10.80;7.68;;;5.30;99.90;;;;;;5003102;28;20026;-71
2022/04/01 00:02:37;;;;;;;11.45;8.32;;;5.30;99.90;;;;;;4996612;28;20045;-71
2022/04/01 00:05:03;;;;;;;;;;;5.30;99.90;;;;;;5004687;28;20533;-72
2022/04/01 00:07:30;;;;;;;11.20;8.05;;;5.20;99.90;;;;;;4999511;28;19905;-71
2022/04/01 00:09:56;;;;;;;13.02;9.68;;;5.20;99.90;;;;;;4983000;28;20035;-74
2022/04/01 00:12:22;;;;;;;11.13;7.65;;;5.10;99.90;;;;;;5004621;28;20029;-71
2022/04/01 00:14:49;;;;;;;10.75;7.80;;;5.10;99.90;;;;;;5007393;28;20415;-72
2022/04/01 00:17:15;;;;;;;11.60;8.75;;;5.10;99.90;;;;;;5007573;28;20111;-73
2022/04/01 00:19:41;;;;;;;12.53;8.67;;;5.00;99.90;;;;;;4982652;28;20830;-74
2022/04/01 00:22:06;;;;;;;12.23;8.57;;;5.00;99.90;;;;;;4981522;28;20030;-72
2022/04/01 00:24:33;;;;;;;12.23;7.87;;;5.00;99.90;;;;;;5008360;28;20025;-72
2022/04/01 00:27:00;;;;;;;12.02;8.75;;;4.90;99.90;;;;;;5002729;28;20637;-73
2022/04/01 00:29:27;;;;;;;10.63;7.82;;;5.00;99.90;;;;;;5000211;28;20061;-72
2022/04/01 00:32:01;;;;;;;13.23;8.68;;;5.00;99.90;;;;;;5004705;28;20157;-71
2022/04/01 00:34:30;;;;;;;11.35;8.30;;;4.90;99.90;;;;;;5007689;28;20046;-71
2022/04/01 00:36:59;;;;;;;11.80;8.75;;;4.90;99.90;;;;;;5002769;28;20044;-71
2022/04/01 00:39:29;;;;;;;13.18;8.40;;;4.90;99.90;;;;;;5003479;28;20021;-73
2022/04/01 00:41:56;;;;;;;11.02;8.13;;;4.90;99.90;;;;;;5007529;28;20037;-73
2022/04/01 00:44:24;;;;;;;11.43;8.02;;;5.00;99.90;;;;;;4989120;28;20500;-71
2022/04/01 00:46:56;;;;;;;12.20;8.15;;;5.00;99.90;;;;;;4993906;28;20033;-72
2022/04/01 00:49:23;;;;;;;11.30;8.57;;;5.00;99.90;;;;;;5007995;28;20040;-71
2022/04/01 00:51:50;;;;;;;;;;;5.00;99.90;;;;;;5010038;28;20033;-72
2022/04/01 00:54:17;;;;;;;12.40;8.35;;;4.90;99.90;;;;;;5005799;28;20294;-71
2022/04/01 00:56:44;;;;;;;13.23;8.85;;;4.80;99.90;;;;;;4999459;28;20014;-71
2022/04/01 00:59:10;;;;;;;12.98;8.70;;;4.70;99.90;;;;;;4983568;28;20026;-73
2022/04/01 01:01:37;;;;;;;12.87;8.50;;;4.70;99.90;;;;;;5003443;28;20056;-71
2022/04/01 01:04:08;;;;;;;12.50;8.80;;;4.70;99.90;;;;;;5000363;28;20063;-71
2022/04/01 01:06:39;;;;;;;11.82;8.88;;;4.70;99.90;;;;;;5000824;28;20025;-76
2022/04/01 01:09:05;;;;;;;11.70;8.38;;;4.70;99.90;;;;;;4990079;28;20030;-72
2022/04/01 01:11:32;;;;;;;12.10;8.55;;;4.70;99.90;;;;;;4996843;28;20018;-76
2022/04/01 01:13:59;;;;;;;12.35;8.57;;;4.70;99.90;;;;;;5007721;28;20029;-72
2022/04/01 01:16:26;;;;;;;11.13;8.10;;;4.70;99.90;;;;;;4987811;28;20033;-71
2022/04/01 01:19:18;;;;;;;12.32;8.55;;;4.70;99.90;;;;;;4992032;28;20128;-71
2022/04/01 01:21:49;;;;;;;11.32;8.18;;;4.70;99.90;;;;;;4998649;28;20055;-72
2022/04/01 01:24:16;;;;;;;12.50;8.77;;;4.70;99.90;;;;;;5005374;28;20032;-71
2022/04/01 01:26:50;;;;;;;14.45;9.63;;;4.70;99.90;;;;;;5007224;28;20032;-72
2022/04/01 01:29:28;;;;;;;12.65;8.98;;;4.60;99.90;;;;;;5009639;28;20025;-71
2022/04/01 01:31:57;;;;;;;11.82;8.82;;;4.70;99.90;;;;;;5012171;28;20030;-71
2022/04/01 01:35:00;;;;;;;11.68;8.25;;;4.60;99.90;;;;;;5005761;28;20018;-71
2022/04/01 01:37:28;;;;;;;13.65;8.80;;;4.60;99.90;;;;;;5001385;28;20025;-73
2022/04/01 01:39:55;;;;;;;12.50;8.13;;;4.60;99.90;;;;;;4985691;28;20026;-71
2022/04/01 01:42:21;;;;;;;12.60;8.88;;;4.50;99.90;;;;;;5005769;28;20029;-71
2022/04/01 01:44:46;;;;;;;12.63;8.83;;;4.50;99.90;;;;;;5002455;28;20379;-74
2022/04/01 01:47:14;;;;;;;12.80;9.13;;;4.50;99.90;;;;;;4997421;28;20430;-75
2022/04/01 01:54:42;;;;;;;11.43;8.25;;;4.50;99.90;;;;;;5006667;28;20075;-74
2022/04/01 01:55:10;;;;;;;12.52;9.07;;;4.40;99.90;;;;;;5006009;28;20498;-73
2022/04/01 01:57:36;;;;;;;12.47;8.67;;;4.50;99.90;;;;;;4983564;28;20026;-76
2022/04/01 02:00:10;;;;;;;13.17;9.30;;;4.50;99.90;;;;;;5007498;28;20683;-72
2022/04/01 02:02:38;;;;;;;16.70;9.93;;;4.50;99.90;;;;;;5006300;28;20646;-72
2022/04/01 02:05:06;;;;;;;11.55;8.07;;;4.50;99.90;;;;;;4986435;28;20560;-72
2022/04/01 02:07:32;;;;;;;14.23;9.85;;;4.40;99.90;;;;;;4999203;28;20526;-73
2022/04/01 02:09:59;;;;;;;15.13;9.85;;;4.40;99.90;;;;;;5006331;28;20045;-73
2022/04/01 02:12:26;;;;;;;15.10;9.10;;;4.30;99.90;;;;;;5009185;28;20072;-71
2022/04/01 02:14:52;;;;;;;15.48;10.52;;;4.40;99.90;;;;;;4999984;28;20024;-71
2022/04/01 02:17:19;;;;;;;16.85;8.90;;;4.40;99.90;;;;;;5004934;28;20014;-72
2022/04/01 02:19:46;;;;;;;14.30;9.93;;;4.50;99.90;;;;;;5009611;28;20450;-71
2022/04/01 02:22:11;;;;;;;14.35;10.60;;;4.50;99.90;;;;;;5009325;28;20030;-73
2022/04/01 02:24:37;;;;;;;13.10;9.73;;;4.50;99.90;;;;;;5003905;28;20036;-71
2022/04/01 02:27:03;;;;;;;16.63;10.10;;;4.50;99.90;;;;;;5008242;28;20037;-72
2022/04/01 02:29:29;;;;;;;14.20;10.32;;;4.50;99.90;;;;;;5002231;28;20030;-76
2022/04/01 02:31:55;;;;;;;15.48;10.60;;;4.50;99.90;;;;;;5009678;28;20034;-71
2022/04/01 02:34:25;;;;;;;14.67;10.07;;;4.50;99.90;;;;;;4987374;28;20033;-72
2022/04/01 02:36:51;;;;;;;14.77;10.18;;;4.60;99.90;;;;;;5005807;28;20574;-77
2022/04/01 02:39:17;;;;;;;15.30;10.23;;;4.60;99.90;;;;;;5008999;28;20141;-75
2022/04/01 02:41:43;;;;;;;14.27;10.50;;;4.60;99.90;;;;;;4985048;28;20260;-73
2022/04/01 02:44:12;;;;;;;15.10;9.47;;;4.60;99.90;;;;;;5009440;28;20124;-73
2022/04/01 02:46:44;;;;;;;14.43;9.90;;;4.60;99.90;;;;;;4996237;28;20537;-72
2022/04/01 02:49:14;;;;;;;13.23;9.00;;;4.60;99.90;;;;;;5009263;28;20025;-73
2022/04/01 02:51:46;;;;;;;14.60;10.18;;;4.60;99.90;;;;;;4997794;28;20122;-72
2022/04/01 02:54:13;;;;;;;14.15;9.70;;;4.50;99.90;;;;;;5008203;28;20025;-74
2022/04/01 02:56:40;;;;;;;;;;;4.50;99.90;;;;;;5003556;28;20618;-72
2022/04/01 02:59:08;;;;;;;15.10;11.02;;;4.50;99.90;;;;;;4998463;28;19905;-72
2022/04/01 03:01:36;;;;;;;12.73;9.65;;;4.50;99.90;;;;;;4999875;28;20026;-73
2022/04/01 03:04:09;;;;;;;16.23;11.18;;;4.50;99.90;;;;;;5005321;28;20029;-73
2022/04/01 03:06:38;;;;;;;15.18;10.27;;;4.50;99.90;;;;;;5005573;28;20059;-72
2022/04/01 03:09:06;;;;;;;18.10;11.02;;;4.50;99.90;;;;;;4996558;28;20041;-71
2022/04/01 03:11:32;;;;;;;16.98;11.20;;;4.50;99.90;;;;;;5004384;28;20065;-75
2022/04/01 03:13:59;;;;;;;18.25;11.95;;;4.50;99.90;;;;;;5007165;28;20025;-71
2022/04/01 03:16:26;;;;;;;16.98;11.48;;;4.50;99.90;;;;;;5006318;28;20033;-71
2022/04/01 03:18:57;;;;;;;16.20;11.27;;;4.50;99.90;;;;;;4995278;28;20028;-71
2022/04/01 03:21:24;;;;;;;15.45;11.18;;;4.50;99.90;;;;;;5006173;28;20022;-72
2022/04/01 03:23:50;;;;;;;16.73;11.50;;;4.50;99.90;;;;;;4986662;28;20022;-72
2022/04/01 03:26:15;;;;;;;17.13;10.80;;;4.50;99.90;;;;;;4986862;28;20075;-71
2022/04/01 03:28:41;;;;;;;15.70;10.87;;;4.50;99.90;;;;;;5010472;28;20371;-71
2022/04/01 03:31:09;;;;;;;16.97;11.57;;;4.50;99.90;;;;;;5009236;28;20032;-71
2022/04/01 03:33:36;;;;;;;16.08;10.85;;;4.60;99.90;;;;;;4981862;28;20030;-72
2022/04/01 03:36:03;;;;;;;18.40;11.63;;;4.60;99.90;;;;;;5005764;28;20121;-73
2022/04/01 03:38:30;;;;;;;15.32;10.40;;;4.60;99.90;;;;;;5002127;28;20029;-71
2022/04/01 03:40:57;;;;;;;17.25;12.15;;;4.60;99.90;;;;;;5004115;28;20748;-78
2022/04/01 03:43:25;;;;;;;15.68;11.43;;;4.50;99.90;;;;;;4991455;28;20148;-71
2022/04/01 03:45:53;;;;;;;16.75;10.88;;;4.50;99.90;;;;;;4988765;28;20033;-75
2022/04/01 03:48:18;;;;;;;14.48;9.90;;;4.40;99.90;;;;;;5013567;28;20121;-77
2022/04/01 03:50:49;;;;;;;15.20;11.17;;;4.50;99.90;;;;;;4981144;28;20750;-72
2022/04/01 03:53:21;;;;;;;16.02;10.82;;;4.50;99.90;;;;;;5008865;28;20033;-73
2022/04/01 03:55:48;;;;;;;15.25;10.45;;;4.50;99.90;;;;;;5004263;28;20357;-72
2022/04/01 03:58:16;;;;;;;;;;;4.50;99.90;;;;;;5007770;28;20040;-72
2022/04/01 04:00:42;;;;;;;16.85;10.95;;;4.50;99.90;;;;;;5000668;28;19960;-72
2022/04/01 04:03:10;;;;;;;16.67;10.93;;;4.40;99.90;;;;;;5000614;28;20029;-71
2022/04/01 04:05:38;;;;;;;13.50;9.13;;;4.40;99.90;;;;;;5007064;28;20114;-72
2022/04/01 04:08:05;;;;;;;14.77;10.85;;;4.40;99.90;;;;;;5001684;28;20029;-72
2022/04/01 04:10:34;;;;;;;13.43;9.85;;;4.40;99.90;;;;;;5001068;28;20037;-73
2022/04/01 04:13:04;;;;;;;16.80;9.90;;;4.40;99.90;;;;;;5008294;28;20100;-72
2022/04/01 04:15:39;;;;;;;14.60;10.68;;;4.40;99.90;;;;;;5001033;28;20021;-72
2022/04/01 04:18:11;;;;;;;13.60;10.05;;;4.40;99.90;;;;;;5007535;28;20034;-71
2022/04/01 04:20:45;;;;;;;17.17;10.77;;;4.40;99.90;;;;;;4977248;28;20026;-67
2022/04/01 04:23:19;;;;;;;15.32;10.85;;;4.40;99.90;;;;;;5002884;28;20033;-68
2022/04/01 04:25:58;;;;;;;14.70;10.23;;;4.60;99.90;;;;;;4993551;28;20029;-71
2022/04/01 04:28:26;;;;;;;15.60;10.43;;;4.70;99.90;;;;;;5009050;28;20644;-70
2022/04/01 04:31:02;;;;;;;13.85;10.05;;;4.70;99.90;;;;;;5012218;28;20432;-70
2022/04/01 04:33:30;;;;;;;14.95;9.75;;;4.60;99.90;;;;;;5008625;28;20033;-70
2022/04/01 04:36:04;;;;;;;16.73;9.80;;;4.60;99.90;;;;;;4993073;28;20661;-70
2022/04/01 04:38:38;;;;;;;15.48;10.18;;;4.60;99.90;;;;;;5006021;28;20108;-70
2022/04/01 04:41:08;;;;;;;13.65;9.52;;;4.60;99.90;;;;;;5008203;28;20072;-71
2022/04/01 04:43:38;;;;;;;13.65;10.02;;;4.60;99.90;;;;;;5011087;28;20513;-70
2022/04/01 04:46:05;;;;;;;15.25;11.15;;;4.60;99.90;;;;;;4990127;28;20060;-70
2022/04/01 04:48:33;;;;;;;12.23;8.90;;;4.60;99.90;;;;;;5012948;28;20060;-73
2022/04/01 04:51:02;;;;;;;14.00;9.20;;;4.60;99.90;;;;;;5007743;28;20022;-69
2022/04/01 04:53:31;;;;;;;13.48;8.93;;;4.50;99.90;;;;;;5010234;28;20052;-70
2022/04/01 04:56:04;;;;;;;13.32;9.52;;;4.50;99.90;;;;;;5010479;28;20018;-71
2022/04/01 04:58:39;;;;;;;13.48;8.90;;;4.50;99.90;;;;;;5012137;28;20103;-70
2022/04/01 05:01:25;;;;;;;13.73;8.82;;;4.50;99.90;;;;;;5007489;28;20595;-70
2022/04/01 05:04:17;;;;;;;12.35;8.75;;;4.50;99.90;;;;;;5015491;28;20057;-70
2022/04/01 05:06:58;;;;;;;12.73;8.82;;;4.50;99.90;;;;;;5012154;28;20982;-76
2022/04/01 05:09:31;;;;;;;13.65;8.98;;;4.50;99.90;;;;;;5011721;28;20530;-71
2022/04/01 05:12:19;;;;;;;10.73;8.80;;;4.50;99.90;;;;;;5004810;28;20033;-70
2022/04/01 05:15:08;;;;;;;11.43;8.18;;;4.50;99.90;;;;;;4970846;28;20064;-70
2022/04/01 05:17:52;;;;;;;12.00;7.78;;;4.50;99.90;;;;;;5010968;28;20028;-70
2022/04/01 05:20:26;;;;;;;12.40;8.82;;;4.50;99.90;;;;;;5007777;28;20052;-70
2022/04/01 05:23:20;;;;;;;12.00;8.25;;;4.50;99.90;;;;;;5012708;28;20026;-75
2022/04/01 05:25:54;;;;;;;12.98;9.18;;;4.50;99.90;;;;;;4994752;28;20026;-70
2022/04/01 05:28:25;;;;;;;12.23;8.50;;;4.50;99.90;;;;;;5013254;28;20017;-70
2022/04/01 05:31:12;;;;;;;11.98;8.15;;;4.50;99.90;;;;;;5009488;28;20048;-70
2022/04/01 05:34:02;;;;;;;10.82;7.72;;;4.50;99.90;;;;;;5015762;28;20364;-71
2022/04/01 05:36:29;;;;;;;11.68;7.80;;;4.50;99.90;;;;;;4992627;28;20018;-71
2022/04/01 05:38:57;;;;;;;12.63;8.35;;;4.50;99.90;;;;;;5011033;28;20073;-70
2022/04/01 05:41:23;;;;;;;10.57;7.63;;;4.50;99.90;;;;;;5011666;28;20014;-70
2022/04/01 05:43:50;;;;;;;11.15;8.05;;;4.40;99.90;;;;;;5006813;28;20652;-70
2022/04/01 05:46:19;;;;;;;10.88;7.45;;;4.50;99.90;;;;;;5004062;28;20040;-70
2022/04/01 05:48:46;;;;;;;10.93;7.80;;;4.40;99.90;;;;;;5015251;28;20037;-70
2022/04/01 05:51:14;;;;;;;10.50;6.97;;;4.40;99.90;;;;;;4986874;28;20056;-71
2022/04/01 05:53:44;;;;;;;10.23;7.13;;;4.40;99.90;;;;;;5007043;28;20014;-70
2022/04/01 05:56:10;;;;;;;9.77;7.18;;;4.40;99.90;;;;;;5004774;28;20068;-74
2022/04/01 05:58:36;;;;;;;9.50;6.95;;;4.30;99.90;;;;;;5008460;28;20021;-73
2022/04/01 06:01:12;;;;;;;10.27;7.33;;;4.30;99.90;;;;;;5000229;28;20375;-71
2022/04/01 06:04:16;;;;;;;10.07;7.28;;;4.30;99.90;;;;;;4993936;28;20033;-71
2022/04/01 06:06:44;;;;;;;11.52;7.03;;;4.30;99.90;;;;;;5006033;28;20030;-70
2022/04/01 06:09:51;;;;;;;9.48;6.50;;;4.40;99.90;;;;;;4999353;28;20037;-71
2022/04/01 06:12:28;;;;;;;9.75;6.80;;;4.30;99.90;;;;;;4980612;28;20057;-70
2022/04/01 06:15:15;;;;;;;9.65;6.60;;;4.30;99.90;;;;;;5004992;28;20022;-71
2022/04/01 06:18:03;;;;;;;9.52;6.07;;;4.40;99.90;;;;;;5008769;28;20018;-73
2022/04/01 06:20:34;;;;;;;8.50;6.03;;;4.40;99.90;;;;;;4984722;28;20419;-74
2022/04/01 06:23:12;;;;;;;8.75;5.97;;;4.50;99.90;;;;;;5003164;28;20030;-70
2022/04/01 06:25:50;;;;;;;8.68;6.00;;;4.50;99.90;;;;;;5008411;28;20108;-71
2022/04/01 06:28:28;;;;;;;8.55;5.72;;;4.60;99.90;;;;;;5008775;28;20036;-71
2022/04/01 06:31:01;;;;;;;7.97;6.28;;;4.60;99.90;;;;;;5009678;28;20210;-70
2022/04/01 06:33:49;;;;;;;8.65;5.65;;;4.70;99.90;;;;;;4995419;28;20060;-71
2022/04/01 06:36:25;;;;;;;8.40;5.53;;;4.70;99.90;;;;;;5002692;28;20018;-70
2022/04/01 06:38:59;;;;;;;7.25;5.30;;;4.80;99.90;;;;;;5010803;28;20021;-73
2022/04/01 06:41:41;;;;;;;10.00;5.57;;;4.80;99.90;;;;;;4998560;28;20026;-75
2022/04/01 06:44:07;;;;;;;7.20;5.60;;;4.90;99.90;;;;;;4988899;28;20041;-70
2022/04/01 06:46:33;;;;;;;7.75;5.55;;;4.90;99.90;;;;;;5011075;28;20386;-71
2022/04/01 06:49:00;;;;;;;7.50;5.30;;;4.80;99.90;;;;;;5011465;28;20034;-74
2022/04/01 06:51:27;;;;;;;6.75;5.28;;;4.80;99.90;;;;;;4984370;28;20402;-72
2022/04/01 06:53:52;;;;;;;;;;;4.90;99.90;;;;;;5009413;28;20076;-70
2022/04/01 06:56:18;;;;;;;7.28;5.13;;;4.90;99.90;;;;;;5006455;28;19905;-70
2022/04/01 06:58:47;;;;;;;7.23;5.30;;;5.00;99.90;;;;;;5012578;28;20124;-71
2022/04/01 07:01:14;;;;;;;7.28;4.97;;;5.20;99.90;;;;;;5002117;28;20033;-71
2022/04/01 07:03:40;;;;;;;6.10;4.85;;;5.20;99.90;;;;;;5014405;28;20018;-70
2022/04/01 07:06:06;;;;;;;6.27;5.27;;;5.10;99.90;;;;;;4990431;28;20034;-71
2022/04/01 07:08:33;;;;;;;6.80;4.93;;;5.10;99.90;;;;;;5008784;28;20140;-78
2022/04/01 07:11:01;;;;;;;6.53;5.20;;;5.10;99.90;;;;;;5011429;28;20049;-70
2022/04/01 07:13:26;;;;;;;5.85;4.55;;;5.10;99.90;;;;;;5010839;28;20484;-71
2022/04/01 07:15:53;;;;;;;6.27;5.10;;;5.10;99.90;;;;;;5014504;28;20010;-72
2022/04/01 07:18:21;;;;;;;;;;;5.00;99.90;;;;;;4990929;28;20072;-72
2022/04/01 07:20:47;;;;;;;6.10;4.80;;;5.10;99.90;;;;;;5010867;28;20362;-72
2022/04/01 07:23:13;;;;;;;7.07;5.10;;;5.00;99.90;;;;;;5009880;28;20072;-71
2022/04/01 07:25:39;;;;;;;6.28;4.88;;;5.10;99.90;;;;;;5011097;28;20047;-71
2022/04/01 07:28:05;;;;;;;5.57;4.93;;;5.10;99.90;;;;;;4997071;28;20483;-71
2022/04/01 07:30:31;;;;;;;6.30;5.03;;;5.10;99.90;;;;;;5005753;28;20029;-76
2022/04/01 07:32:58;;;;;;;7.50;4.60;;;5.10;99.90;;;;;;4991978;28;20036;-71
2022/04/01 07:35:25;;;;;;;6.85;4.78;;;5.10;99.90;;;;;;5008548;28;20053;-72
2022/04/01 07:37:51;;;;;;;5.25;4.55;;;5.10;99.90;;;;;;5008395;28;20022;-79
2022/04/01 07:40:21;;;;;;;5.67;4.77;;;5.20;99.90;;;;;;4988760;28;20029;-72
2022/04/01 07:42:48;;;;;;;8.52;4.63;;;5.20;99.90;;;;;;5001500;28;20299;-71
2022/04/01 07:45:14;;;;;;;6.72;4.90;;;5.20;99.90;;;;;;5006310;28;20148;-72
2022/04/01 07:47:44;;;;;;;5.53;4.75;;;5.20;99.90;;;;;;5012781;28;20053;-74
2022/04/01 07:50:12;;;;;;;6.93;4.70;;;5.20;99.90;;;;;;5008618;28;20034;-72
2022/04/01 07:52:40;;;;;;;6.35;4.82;;;5.20;99.90;;;;;;5009206;28;20744;-71
2022/04/01 07:55:11;;;;;;;5.82;4.68;;;5.20;99.90;;;;;;4993953;28;20045;-72
2022/04/01 07:57:37;;;;;;;8.38;5.55;;;5.30;99.90;;;;;;4992193;28;20107;-75
2022/04/01 08:00:05;;;;;;;5.82;4.88;;;5.30;99.90;;;;;;5010610;28;20454;-74
2022/04/01 08:02:31;;;;;;;6.75;5.28;;;5.30;99.90;;;;;;5006161;28;20500;-71
2022/04/01 08:04:56;;;;;;;5.60;4.53;;;5.30;99.90;;;;;;5006981;28;20413;-72
2022/04/01 08:07:22;;;;;;;6.97;5.00;;;5.30;99.90;;;;;;5010802;28;20051;-74
2022/04/01 08:09:49;;;;;;;5.83;4.87;;;5.30;99.90;;;;;;5012553;28;20025;-72
2022/04/01 08:12:16;;;;;;;7.85;5.53;;;5.40;99.90;;;;;;4992419;28;21454;-72
2022/04/01 08:14:42;;;;;;;6.65;4.80;;;5.40;99.90;;;;;;5010648;28;20064;-73
2022/04/01 08:17:11;;;;;;;5.47;4.47;;;5.40;99.90;;;;;;5009715;28;20026;-78
2022/04/01 08:19:39;;;;;;;6.10;4.57;;;5.40;99.90;;;;;;5014890;28;20030;-71
2022/04/01 08:22:05;;;;;;;6.07;4.40;;;5.40;99.90;;;;;;4997570;28;20025;-71
2022/04/01 08:24:31;;;;;;;5.70;4.25;;;5.40;99.90;;;;;;5000483;28;20672;-75
2022/04/01 08:26:59;;;;;;;5.47;4.43;;;5.40;99.90;;;;;;5015998;28;20574;-71
2022/04/01 08:29:26;;;;;;;6.88;5.05;;;5.40;99.90;;;;;;4983221;28;20030;-71
2022/04/01 08:31:51;;;;;;;5.88;4.47;;;5.50;99.90;;;;;;5014794;28;20026;-71
2022/04/01 08:34:17;;;;;;;4.83;4.33;;;5.50;99.90;;;;;;4983239;28;20049;-71
2022/04/01 08:36:43;;;;;;;7.43;4.60;;;5.50;99.90;;;;;;5018155;28;20533;-70
2022/04/01 08:39:09;;;;;;;6.33;4.73;;;5.50;99.90;;;;;;5014762;28;20029;-71
2022/04/01 08:41:35;;;;;;;5.35;4.50;;;5.50;99.90;;;;;;4993764;28;20399;-74
2022/04/01 08:44:02;;;;;;;6.47;4.90;;;5.60;99.90;;;;;;5012812;28;20096;-75
2022/04/01 08:46:28;;;;;;;5.35;4.60;;;5.60;99.90;;;;;;4993551;28;20034;-71
2022/04/01 08:48:54;;;;;;;6.03;4.97;;;5.60;99.90;;;;;;5018159;28;20103;-73
2022/04/01 08:51:21;;;;;;;;;;;5.60;99.90;;;;;;5012172;28;20053;-73
2022/04/01 08:53:47;;;;;;;6.30;4.38;;;5.60;99.90;;;;;;5017426;28;19905;-70
2022/04/01 08:56:17;;;;;;;5.53;3.83;;;5.60;99.90;;;;;;4999944;28;20075;-73
2022/04/01 08:58:43;;;;;;;4.53;3.88;;;5.60;99.90;;;;;;5016725;28;20973;-72
2022/04/01 09:01:09;;;;;;;5.53;4.13;;;5.70;99.90;;;;;;5013687;28;20033;-71
2022/04/01 09:03:36;;;;;;;5.50;4.50;;;5.70;99.90;;;;;;5010177;28;20104;-73
2022/04/01 09:06:03;;;;;;;;;;;5.70;99.90;;;;;;5012673;28;20056;-72
2022/04/01 09:08:37;;;;;;;5.60;4.55;;;5.70;99.90;;;;;;5014953;28;19913;-71
2022/04/01 09:11:22;;;;;;;5.93;4.25;;;5.70;99.90;;;;;;5007742;28;21070;-70
2022/04/01 09:13:52;;;;;;;5.82;4.28;;;5.70;99.90;;;;;;5008816;28;20559;-71
2022/04/01 09:16:36;;;;;;;6.32;4.10;;;5.80;99.90;;;;;;5015134;28;20473;-70
2022/04/01 09:19:06;;;;;;;4.82;4.07;;;5.70;99.90;;;;;;5011589;28;20071;-73
2022/04/01 09:21:37;;;;;;;4.78;4.25;;;5.80;99.90;;;;;;5014606;28;20124;-74
2022/04/01 09:24:03;;;;;;;6.00;4.40;;;5.80;99.90;;;;;;5011924;28;20029;-72
2022/04/01 09:26:37;;;;;;;4.82;3.92;;;5.80;99.90;;;;;;5015454;28;20545;-76
2022/04/01 09:29:10;;;;;;;4.85;4.03;;;5.80;99.90;;;;;;5008833;28;20030;-71
2022/04/01 09:31:38;;;;;;;4.82;3.90;;;5.80;99.90;;;;;;5008872;28;20025;-71
2022/04/01 09:34:06;;;;;;;4.32;3.92;;;5.80;99.90;;;;;;5008192;28;20044;-71
2022/04/01 09:36:42;;;;;;;6.00;4.57;;;5.90;99.90;;;;;;5013723;28;20053;-71
2022/04/01 09:39:19;;;;;;;5.40;4.30;;;6.00;99.90;;;;;;5009315;28;20033;-70
2022/04/01 09:41:47;;;;;;;5.25;4.57;;;6.00;99.90;;;;;;4995498;28;20033;-70
2022/04/01 09:44:29;;;;;;;5.15;4.47;;;6.10;99.90;;;;;;5011538;28;20389;-69
2022/04/01 09:47:03;;;;;;;4.90;4.15;;;6.10;99.90;;;;;;5012999;28;20029;-71
2022/04/01 09:49:42;;;;;;;4.78;4.13;;;6.10;99.90;;;;;;5013947;28;20060;-67
2022/04/01 09:52:13;;;;;;;5.45;3.70;;;6.40;99.90;;;;;;5009868;28;20052;-68
2022/04/01 09:54:45;;;;;;;5.28;4.25;;;6.70;99.90;;;;;;4997608;28;20026;-67
2022/04/01 09:57:13;;;;;;;6.15;4.15;;;6.90;99.90;;;;;;5016741;28;20045;-67
2022/04/01 09:59:41;;;;;;;5.60;4.25;;;7.10;99.90;;;;;;5015498;28;20029;-67
2022/04/01 10:02:07;;;;;;;6.45;4.57;;;7.40;99.90;;;;;;5011341;28;20426;-67
2022/04/01 10:04:32;;;;;;;5.90;4.67;;;7.50;99.90;;;;;;4996782;28;20026;-67
2022/04/01 10:07:01;;;;;;;5.40;4.23;;;7.60;99.30;;;;;;5009242;28;20044;-75
2022/04/01 10:09:28;;;;;;;6.00;4.55;;;7.70;98.50;;;;;;5014240;28;20030;-70
2022/04/01 10:11:57;;;;;;;4.72;4.13;;;7.50;98.00;;;;;;5010367;28;20017;-70
2022/04/01 10:14:27;;;;;;;5.70;4.47;;;7.20;98.20;;;;;;5013446;28;20424;-73
2022/04/01 10:16:55;;;;;;;5.55;4.30;;;7.00;98.90;;;;;;5008525;28;20026;-70
2022/04/01 10:19:32;;;;;;;4.88;4.38;;;6.90;99.30;;;;;;5012681;28;20491;-72
2022/04/01 10:21:59;;;;;;;5.93;4.68;;;6.70;99.20;;;;;;5014260;28;20048;-70
2022/04/01 10:24:54;;;;;;;5.30;4.07;;;6.70;99.40;;;;;;5013626;28;20034;-69
2022/04/01 10:27:53;;;;;;;5.00;4.50;;;6.50;99.20;;;;;;5011422;28;20113;-69
2022/04/01 10:30:23;;;;;;;5.65;4.60;;;6.40;99.60;;;;;;4951309;28;20806;-70
2022/04/01 10:32:49;;;;;;;5.78;4.88;;;6.40;99.60;;;;;;5013206;28;20045;-69
2022/04/01 10:35:32;;;;;;;4.72;3.85;;;6.30;99.80;;;;;;5006442;28;20026;-70
2022/04/01 10:38:06;;;;;;;6.18;4.40;;;6.30;99.30;;;;;;5009851;28;20030;-69
2022/04/01 10:40:40;;;;;;;5.13;3.95;;;6.40;99.60;;;;;;5011558;28;20699;-69
2022/04/01 10:43:27;;;;;;;4.28;3.88;;;6.50;99.80;;;;;;5003736;28;20245;-69
2022/04/01 10:46:06;;;;;;;4.70;3.53;;;6.60;99.60;;;;;;5010945;28;20022;-69
2022/04/01 10:54:02;;;;;;;4.40;3.60;;;6.50;99.20;;;;;;5012229;28;20501;-69
2022/04/01 10:56:28;;;;;;;4.00;3.50;;;6.50;99.10;;;;;;5010553;28;20013;-73
2022/04/01 10:59:05;;;;;;;4.35;3.60;;;6.40;99.10;;;;;;5003724;28;20037;-70
2022/04/01 11:01:32;;;;;;;5.00;4.07;;;6.40;99.20;;;;;;5009389;28;20025;-69
2022/04/01 11:04:10;;;;;;;5.03;3.58;;;6.50;99.30;;;;;;5011666;28;20661;-71
2022/04/01 11:06:53;;;;;;;4.72;3.60;;;6.50;99.30;;;;;;5001604;28;20113;-69
2022/04/01 11:09:40;;;;;;;4.47;3.60;;;6.60;99.10;;;;;;5006622;28;20072;-68
2022/04/01 11:12:14;;;;;;;4.90;3.90;;;6.60;99.10;;;;;;5008668;28;20546;-68
2022/04/01 11:17:49;;;;;;;5.65;4.28;;;6.60;98.90;;;;;;5008659;28;20026;-69
2022/04/01 11:20:18;;;;;;;;;;;6.60;98.90;;;;;;5009018;28;20022;-69
2022/04/01 11:23:05;;;;;;;4.60;3.67;;;6.60;98.90;;;;;;5004785;28;19915;-69
2022/04/01 11:25:33;;;;;;;3.53;3.00;;;6.70;98.40;;;;;;5010509;28;20132;-70
2022/04/01 11:28:01;;;;;;;4.13;3.42;;;6.70;98.70;;;;;;5008415;28;20375;-69
2022/04/01 11:30:40;;;;;;;4.78;3.67;;;6.80;98.50;;;;;;5012011;28;20083;-69
2022/04/01 11:33:17;;;;;;;4.00;3.50;;;6.80;98.50;;;;;;5004282;28;20490;-69
2022/04/01 11:35:54;;;;;;;3.55;3.05;;;6.80;98.00;;;;;;5011602;28;20102;-71
2022/04/01 11:38:22;;;;;;;4.05;3.50;;;6.80;97.80;;;;;;5009371;28;20033;-69
2022/04/01 11:41:00;;;;;;;3.60;3.13;;;6.90;97.60;;;;;;5012640;28;20124;-69
2022/04/01 11:43:27;;;;;;;4.47;3.55;;;6.90;97.80;;;;;;4996026;28;20037;-68
2022/04/01 11:45:57;;;;;;;4.45;3.83;;;6.90;97.70;;;;;;4985789;28;20044;-69
2022/04/01 11:48:34;;;;;;;4.68;3.45;;;7.00;97.70;;;;;;5008004;28;20121;-69
2022/04/01 11:51:08;;;;;;;4.13;3.63;;;7.00;97.50;;;;;;5009473;28;20021;-69
2022/04/01 11:53:43;;;;;;;4.00;3.33;;;6.90;97.30;;;;;;5008053;28;20021;-67
2022/04/01 11:56:10;;;;;;;5.53;3.90;;;7.00;99.50;;;;;;5008766;28;20041;-67
2022/04/01 11:58:52;;;;;;;4.78;4.20;;;7.40;97.70;;;;;;5005052;28;20014;-69
2022/04/01 12:01:19;;;;;;;5.40;3.70;;;7.60;96.50;;;;;;5006342;28;20025;-69
2022/04/01 12:03:45;;;;;;;5.50;3.83;;;7.50;96.30;;;;;;5010117;28;20498;-69
2022/04/01 12:09:00;;;;;;;4.15;3.67;;;7.30;96.60;;;;;;5009745;28;20068;-69
2022/04/01 12:11:26;;;;;;;5.55;3.95;;;7.20;96.70;;;;;;5002924;28;21333;-69
2022/04/01 12:13:53;;;;;;;4.67;4.07;;;7.10;96.80;;;;;;5008165;28;20026;-69
2022/04/01 12:16:21;;;;;;;4.65;3.70;;;7.20;97.20;;;;;;5007518;28;20018;-70
2022/04/01 12:18:49;;;;;;;4.40;3.63;;;7.20;97.00;;;;;;5011425;28;20029;-69
2022/04/01 12:21:24;;;;;;;3.30;2.95;;;7.10;96.90;;;;;;5007443;28;20022;-69
2022/04/01 12:23:51;;;;;;;3.45;3.00;;;7.10;97.00;;;;;;5007873;28;20108;-69
2022/04/01 12:26:21;;;;;;;4.57;3.75;;;7.00;97.10;;;;;;5012803;28;20026;-69
2022/04/01 12:28:50;;;;;;;4.63;3.63;;;7.00;97.50;;;;;;5010095;28;20052;-69
2022/04/01 12:31:24;;;;;;;3.35;3.05;;;7.10;97.20;;;;;;5011103;28;20026;-69
2022/04/01 12:33:55;;;;;;;3.88;3.47;;;7.10;97.20;;;;;;5014675;28;20057;-70
2022/04/01 12:36:36;;;;;;;3.97;3.17;;;7.10;97.10;;;;;;4994328;28;20108;-70
2022/04/01 12:39:11;;;;;;;3.35;3.05;;;7.10;97.30;;;;;;5006526;28;20032;-70
2022/04/01 12:41:51;;;;;;;3.25;2.75;;;7.10;96.90;;;;;;5008285;28;20068;-69
2022/04/01 12:44:17;;;;;;;4.13;2.92;;;7.10;97.40;;;;;;5010694;28;20625;-70
2022/04/01 12:46:48;;;;;;;3.97;3.40;;;7.20;97.10;;;;;;5006609;28;20188;-70
2022/04/01 12:49:16;;;;;;;3.70;3.00;;;7.40;98.40;;;;;;5006917;28;20037;-70
2022/04/01 12:51:52;;;;;;;3.15;2.75;;;7.90;97.90;;;;;;5007308;28;20602;-70
2022/04/01 12:54:25;;;;;;;3.35;2.58;;;8.10;96.40;;;;;;5007485;28;20025;-69
2022/04/01 12:56:51;;;;;;;3.40;2.88;;;8.20;95.80;;;;;;5009224;28;20061;-70
2022/04/01 12:59:21;;;;;;;3.08;2.75;;;8.10;95.50;;;;;;5005642;28;20017;-70
2022/04/01 13:02:08;;;;;;;3.00;2.70;;;7.90;95.80;;;;;;4987944;28;20217;-69
2022/04/01 13:04:49;;;;;;;3.08;2.78;;;7.70;96.20;;;;;;5003986;28;20177;-70
2022/04/01 13:07:28;;;;;;;3.30;2.95;;;7.60;96.30;;;;;;5007805;28;20026;-69
2022/04/01 13:09:58;;;;;;;4.18;2.90;;;7.40;96.90;;;;;;5012812;28;20534;-70
2022/04/01 13:12:40;;;;;;;3.83;3.25;;;7.30;97.00;;;;;;5011019;28;20113;-70
2022/04/01 13:15:11;;;;;;;3.50;3.20;;;7.30;97.40;;;;;;5011818;28;20018;-70
2022/04/01 13:17:49;;;;;;;3.72;2.83;;;7.20;97.50;;;;;;5014456;28;20025;-70
2022/04/01 13:20:17;;;;;;;2.92;2.70;;;7.10;97.60;;;;;;4994942;28;20029;-70
2022/04/01 13:22:44;;;;;;;3.92;2.97;;;7.10;97.50;;;;;;5015592;28;20025;-70
2022/04/01 13:25:12;;;;;;;3.20;2.90;;;7.10;97.80;;;;;;5013017;28;20053;-69